createdAt,value
2022-11-17T00:00:05.563Z,1.96
2022-11-17T00:03:27.033Z,1.94
2022-11-17T00:06:48.483Z,1.95
2022-11-17T00:09:50.386Z,1.95
2022-11-17T00:13:10.843Z,1.96
2022-11-17T00:16:14.007Z,1.97
2022-11-17T00:19:34.377Z,1.98
2022-11-17T00:22:36.093Z,1.99
2022-11-17T00:25:37.808Z,1.98
2022-11-17T00:28:39.389Z,2.02
2022-11-17T00:31:59.658Z,2.02
2022-11-17T00:35:01.964Z,2.02
2022-11-17T00:38:15.474Z,2.01
2022-11-17T00:41:17.234Z,1.99
2022-11-17T00:44:19.055Z,1.99
2022-11-17T00:47:21.119Z,1.99
2022-11-17T00:50:24.276Z,2.00
2022-11-17T00:53:25.845Z,2.01
2022-11-17T00:56:28.035Z,2.02
2022-11-17T00:59:29.813Z,2.03
2022-11-17T01:02:31.601Z,2.04
2022-11-17T01:05:34.456Z,2.04
2022-11-17T01:08:36.767Z,2.06
2022-11-17T01:11:38.383Z,2.07
2022-11-17T01:14:45.691Z,2.08
2022-11-17T01:17:47.217Z,2.08
2022-11-17T01:20:48.813Z,2.07
2022-11-17T01:23:52.601Z,2.05
2022-11-17T01:26:54.309Z,2.02
2022-11-17T01:29:55.839Z,2.00
2022-11-17T01:32:57.455Z,1.99
2022-11-17T01:36:12.023Z,1.98
2022-11-17T01:39:13.805Z,1.97
2022-11-17T01:42:21.328Z,1.95
2022-11-17T01:45:24.892Z,1.94
2022-11-17T01:48:26.617Z,1.94
2022-11-17T01:51:28.317Z,1.93
2022-11-17T01:54:32.328Z,1.93
2022-11-17T01:57:39.355Z,1.93
2022-11-17T02:00:41.764Z,1.94
2022-11-17T02:03:44.815Z,1.88
2022-11-17T02:06:46.501Z,1.86
2022-11-17T02:09:48.849Z,1.87
2022-11-17T02:12:50.615Z,1.86
2022-11-17T02:15:52.172Z,1.86
2022-11-17T02:18:54.133Z,1.86
2022-11-17T02:22:14.954Z,1.84
2022-11-17T02:25:23.004Z,1.84
2022-11-17T02:28:30.435Z,1.85
2022-11-17T02:31:58.443Z,1.86
2022-11-17T02:35:23.579Z,1.86
2022-11-17T02:39:02.624Z,1.85
2022-11-17T02:42:44.900Z,1.84
2022-11-17T02:46:08.686Z,1.84
2022-11-17T02:49:20.031Z,1.83
2022-11-17T02:52:22.030Z,1.84
2022-11-17T02:55:23.885Z,1.84
2022-11-17T02:58:25.393Z,1.82
2022-11-17T03:02:05.042Z,1.81
2022-11-17T03:05:16.640Z,1.78
2022-11-17T03:08:42.562Z,1.77
2022-11-17T03:11:55.432Z,1.75
2022-11-17T03:15:13.925Z,1.73
2022-11-17T03:18:23.042Z,1.71
2022-11-17T03:21:40.460Z,1.70
2022-11-17T03:24:47.300Z,1.69
2022-11-17T03:27:53.037Z,1.69
2022-11-17T03:30:56.308Z,1.70
2022-11-17T03:33:58.281Z,1.70
2022-11-17T03:37:02.760Z,1.70
2022-11-17T03:40:08.711Z,1.70
2022-11-17T03:43:13.327Z,1.71
2022-11-17T03:46:16.496Z,1.73
2022-11-17T03:49:25.510Z,1.73
2022-11-17T03:52:29.756Z,1.72
2022-11-17T03:55:43.582Z,1.72
2022-11-17T03:59:19.201Z,1.73
2022-11-17T04:02:21.867Z,1.73
2022-11-17T04:05:23.586Z,1.73
2022-11-17T04:08:29.611Z,1.73
2022-11-17T04:11:50.154Z,1.73
2022-11-17T04:15:10.406Z,1.73
2022-11-17T04:18:15.851Z,1.74
2022-11-17T04:21:17.620Z,1.76
2022-11-17T04:24:19.199Z,1.76
2022-11-17T04:27:39.650Z,1.77
2022-11-17T04:30:41.427Z,1.78
2022-11-17T04:33:45.729Z,1.80
2022-11-17T04:36:47.425Z,1.79
2022-11-17T04:39:48.974Z,1.80
2022-11-17T04:42:50.576Z,1.81
2022-11-17T04:45:52.206Z,1.83
2022-11-17T04:48:54.852Z,1.85
2022-11-17T04:51:56.523Z,1.87
2022-11-17T04:54:58.102Z,1.87
2022-11-17T04:57:59.814Z,1.86
2022-11-17T05:01:13.768Z,1.83
2022-11-17T05:04:37.379Z,1.81
2022-11-17T05:07:39.001Z,1.72
2022-11-17T05:11:00.311Z,1.41
2022-11-17T05:14:03.414Z,1.27
2022-11-17T05:17:09.497Z,1.21
2022-11-17T05:20:12.391Z,1.22
2022-11-17T05:23:33.208Z,1.23
2022-11-17T05:26:36.757Z,1.19
2022-11-17T05:29:38.465Z,1.17
2022-11-17T05:32:40.180Z,1.18
2022-11-17T05:35:42.168Z,1.15
2022-11-17T05:38:44.387Z,1.06
2022-11-17T05:41:46.069Z,1.02
2022-11-17T05:44:48.641Z,1.10
2022-11-17T05:47:50.514Z,1.25
2022-11-17T05:50:55.371Z,1.22
2022-11-17T05:53:56.993Z,1.01
2022-11-17T05:57:03.533Z,0.94
2022-11-17T06:00:05.862Z,0.92
2022-11-17T06:03:14.536Z,0.89
2022-11-17T06:06:16.363Z,0.91
2022-11-17T06:09:18.078Z,0.92
2022-11-17T06:12:20.253Z,0.95
2022-11-17T06:15:21.837Z,0.94
2022-11-17T06:18:27.773Z,0.93
2022-11-17T06:21:43.128Z,0.92
2022-11-17T06:24:51.388Z,0.90
2022-11-17T06:27:56.778Z,0.88
2022-11-17T06:30:59.240Z,0.96
2022-11-17T06:34:02.448Z,1.04
2022-11-17T06:37:04.326Z,0.92
2022-11-17T06:40:06.088Z,0.82
2022-11-17T06:43:10.679Z,0.82
2022-11-17T06:46:12.409Z,0.91
2022-11-17T06:49:14.059Z,0.95
2022-11-17T06:52:16.414Z,0.98
2022-11-17T06:55:18.655Z,1.02
2022-11-17T06:58:20.742Z,1.03
2022-11-17T07:01:22.442Z,1.03
2022-11-17T07:04:24.157Z,1.04
2022-11-17T07:07:26.038Z,1.06
2022-11-17T07:10:28.629Z,1.07
2022-11-17T07:13:32.408Z,1.08
2022-11-17T07:16:34.116Z,1.08
2022-11-17T07:19:35.756Z,1.09
2022-11-17T07:22:38.277Z,1.10
2022-11-17T07:25:41.609Z,1.11
2022-11-17T07:28:46.400Z,1.11
2022-11-17T07:31:48.309Z,1.13
2022-11-17T07:34:50.686Z,1.14
2022-11-17T07:37:56.200Z,1.14
2022-11-17T07:41:00.164Z,1.12
2022-11-17T07:44:01.921Z,1.12
2022-11-17T07:47:03.475Z,1.11
2022-11-17T07:50:05.603Z,1.13
2022-11-17T07:53:07.268Z,1.15
2022-11-17T07:56:11.198Z,1.19
2022-11-17T07:59:17.157Z,1.24
2022-11-17T08:02:21.905Z,1.26
2022-11-17T08:05:24.586Z,1.29
2022-11-17T08:08:26.265Z,1.29
2022-11-17T08:11:27.947Z,1.30
2022-11-17T08:14:30.239Z,1.31
2022-11-17T08:17:32.285Z,1.31
2022-11-17T08:20:33.914Z,1.34
2022-11-17T08:23:36.114Z,1.39
2022-11-17T08:26:37.840Z,1.42
2022-11-17T08:29:39.352Z,1.44
2022-11-17T08:32:50.122Z,1.47
2022-11-17T08:35:51.884Z,1.48
2022-11-17T08:38:53.744Z,1.43
2022-11-17T08:41:55.600Z,1.44
2022-11-17T08:44:57.309Z,1.44
2022-11-17T08:47:59.165Z,1.43
2022-11-17T08:51:07.296Z,1.37
2022-11-17T08:54:11.834Z,1.34
2022-11-17T08:57:13.609Z,1.34
2022-11-17T09:00:16.463Z,1.30
2022-11-17T09:03:18.139Z,1.31
2022-11-17T09:06:20.225Z,1.34
2022-11-17T09:09:22.076Z,1.36
2022-11-17T09:12:26.558Z,1.40
2022-11-17T09:15:28.359Z,1.43
2022-11-17T09:18:30.197Z,1.43
2022-11-17T09:21:32.872Z,1.40
2022-11-17T09:24:34.670Z,1.38
2022-11-17T09:27:36.910Z,1.35
2022-11-17T09:30:38.573Z,1.34
2022-11-17T09:33:40.415Z,1.32
2022-11-17T09:36:42.307Z,1.32
2022-11-17T09:39:44.327Z,1.34
2022-11-17T09:42:46.561Z,1.35
2022-11-17T09:45:49.125Z,1.32
2022-11-17T09:49:07.069Z,1.27
2022-11-17T09:52:21.249Z,1.27
2022-11-17T09:55:39.100Z,1.26
2022-11-17T09:59:04.340Z,1.30
2022-11-17T10:02:10.366Z,1.32
2022-11-17T10:05:14.325Z,1.33
2022-11-17T10:08:19.064Z,1.34
2022-11-17T10:11:33.230Z,1.30
2022-11-17T10:14:36.537Z,1.29
2022-11-17T10:17:39.549Z,1.30
2022-11-17T10:20:42.975Z,1.32
2022-11-17T10:23:47.620Z,1.34
2022-11-17T10:26:49.634Z,1.35
2022-11-17T10:29:57.064Z,1.38
2022-11-17T10:33:00.889Z,1.41
2022-11-17T10:36:03.994Z,1.43
2022-11-17T10:39:33.080Z,1.44
2022-11-17T10:42:34.706Z,1.45
2022-11-17T10:45:36.420Z,1.42
2022-11-17T10:48:39.315Z,1.47
2022-11-17T10:51:40.971Z,1.47
2022-11-17T10:54:42.745Z,1.54
2022-11-17T10:57:44.888Z,1.61
2022-11-17T11:01:02.279Z,1.61
2022-11-17T11:04:06.311Z,1.63
2022-11-17T11:07:20.653Z,1.66
2022-11-17T11:10:32.837Z,1.65
2022-11-17T11:14:08.277Z,1.61
2022-11-17T11:17:14.816Z,1.56
2022-11-17T11:20:19.436Z,1.52
2022-11-17T11:23:34.961Z,1.48
2022-11-17T11:27:11.719Z,1.44
2022-11-17T11:30:16.142Z,1.45
2022-11-17T11:33:23.747Z,1.45
2022-11-17T11:36:48.514Z,1.47
2022-11-17T11:40:21.881Z,1.51
2022-11-17T11:43:30.284Z,1.61
2022-11-17T11:46:47.457Z,1.65
2022-11-17T11:49:52.836Z,1.62
2022-11-17T11:52:59.867Z,1.52
2022-11-17T11:56:10.392Z,1.46
2022-11-17T11:59:28.858Z,1.48
2022-11-17T12:02:48.884Z,1.48
2022-11-17T12:06:43.330Z,1.53
2022-11-17T12:10:21.429Z,1.52
2022-11-17T12:13:24.224Z,1.58
2022-11-17T12:16:32.542Z,1.61
2022-11-17T12:19:54.250Z,1.60
2022-11-17T12:23:18.308Z,1.58
2022-11-17T12:26:22.590Z,1.55
2022-11-17T12:29:28.111Z,1.54
2022-11-17T12:32:53.679Z,1.52
2022-11-17T12:36:30.414Z,1.44
2022-11-17T12:39:55.963Z,1.38
2022-11-17T12:43:30.619Z,1.33
2022-11-17T12:46:33.447Z,1.32
2022-11-17T12:49:59.970Z,1.28
2022-11-17T12:53:18.444Z,1.28
2022-11-17T12:56:46.487Z,1.25
2022-11-17T13:00:11.013Z,1.28
2022-11-17T13:03:16.804Z,1.28
2022-11-17T13:06:35.074Z,1.25
2022-11-17T13:09:37.871Z,1.20
2022-11-17T13:12:39.512Z,1.20
2022-11-17T13:15:41.520Z,1.20
2022-11-17T13:18:43.473Z,1.17
2022-11-17T13:21:45.647Z,1.15
2022-11-17T13:24:50.926Z,1.10
2022-11-17T13:27:57.275Z,1.07
2022-11-17T13:31:01.276Z,1.06
2022-11-17T13:34:08.034Z,1.06
2022-11-17T13:37:19.246Z,1.06
2022-11-17T13:40:22.232Z,1.02
2022-11-17T13:43:25.658Z,0.98
2022-11-17T13:46:27.515Z,0.97
2022-11-17T13:49:39.488Z,0.98
2022-11-17T13:52:46.925Z,0.97
2022-11-17T13:55:49.683Z,0.96
2022-11-17T13:58:52.156Z,0.95
2022-11-17T14:02:16.070Z,0.94
2022-11-17T14:05:18.729Z,0.92
2022-11-17T14:08:27.364Z,0.92
2022-11-17T14:11:29.358Z,0.90
2022-11-17T14:14:34.830Z,0.89
2022-11-17T14:17:36.817Z,0.89
2022-11-17T14:20:38.576Z,0.88
2022-11-17T14:23:41.286Z,0.87
2022-11-17T14:26:44.981Z,0.87
2022-11-17T14:29:46.710Z,0.86
2022-11-17T14:32:48.554Z,0.83
2022-11-17T14:35:53.841Z,0.82
2022-11-17T14:38:55.784Z,0.82
2022-11-17T14:41:58.170Z,0.80
2022-11-17T14:44:59.950Z,0.79
2022-11-17T14:48:02.752Z,0.79
2022-11-17T14:51:04.542Z,0.79
2022-11-17T14:54:06.532Z,0.77
2022-11-17T14:57:08.367Z,0.76
2022-11-17T15:00:14.505Z,0.75
2022-11-17T15:03:17.734Z,0.72
2022-11-17T15:06:20.592Z,0.70
2022-11-17T15:09:22.803Z,0.67
2022-11-17T15:12:25.174Z,0.65
2022-11-17T15:15:27.124Z,0.61
2022-11-17T15:18:28.935Z,0.59
2022-11-17T15:21:30.701Z,0.56
2022-11-17T15:24:32.232Z,0.54
2022-11-17T15:27:33.939Z,0.53
2022-11-17T15:30:35.528Z,0.53
2022-11-17T15:33:37.565Z,0.52
2022-11-17T15:36:39.352Z,0.50
2022-11-17T15:39:41.087Z,0.48
2022-11-17T15:42:42.803Z,0.48
2022-11-17T15:45:44.648Z,0.49
2022-11-17T15:48:46.925Z,0.51
2022-11-17T15:51:48.656Z,0.51
2022-11-17T15:54:50.245Z,0.50
2022-11-17T15:57:53.613Z,0.49
2022-11-17T16:00:55.330Z,0.49
2022-11-17T16:03:57.722Z,0.48
2022-11-17T16:06:59.912Z,0.47
2022-11-17T16:10:01.825Z,0.45
2022-11-17T16:13:03.590Z,0.46
2022-11-17T16:16:05.656Z,0.46
2022-11-17T16:19:07.457Z,0.45
2022-11-17T16:22:09.334Z,0.45
2022-11-17T16:25:11.104Z,0.44
2022-11-17T16:28:13.734Z,0.44
2022-11-17T16:31:18.002Z,0.42
2022-11-17T16:34:19.873Z,0.41
2022-11-17T16:37:21.833Z,0.40
2022-11-17T16:40:23.451Z,0.39
2022-11-17T16:43:25.021Z,0.37
2022-11-17T16:46:29.204Z,0.35
2022-11-17T16:49:32.754Z,0.33
2022-11-17T16:52:34.633Z,0.32
2022-11-17T16:55:37.419Z,0.31
2022-11-17T16:58:39.227Z,0.32
2022-11-17T17:01:41.384Z,0.31
2022-11-17T17:04:43.169Z,0.32
2022-11-17T17:07:44.788Z,0.31
2022-11-17T17:10:48.227Z,0.31
2022-11-17T17:13:49.956Z,0.29
2022-11-17T17:16:51.669Z,0.28
2022-11-17T17:19:53.346Z,0.30
2022-11-17T17:22:57.838Z,0.28
2022-11-17T17:26:12.545Z,0.27
2022-11-17T17:29:14.498Z,0.27
2022-11-17T17:32:16.472Z,0.28
2022-11-17T17:35:18.289Z,0.30
2022-11-17T17:38:19.900Z,0.28
2022-11-17T17:41:22.658Z,0.28
2022-11-17T17:44:24.302Z,0.30
2022-11-17T17:47:25.905Z,0.33
2022-11-17T17:50:27.642Z,0.34
2022-11-17T17:53:29.288Z,0.32
2022-11-17T17:56:34.684Z,0.33
2022-11-17T17:59:36.444Z,0.34
2022-11-17T18:02:38.098Z,0.36
2022-11-17T18:05:39.798Z,0.35
2022-11-17T18:08:41.509Z,0.34
2022-11-17T18:11:48.005Z,0.34
2022-11-17T18:14:49.791Z,0.32
2022-11-17T18:17:51.307Z,0.30
2022-11-17T18:21:06.862Z,0.30
2022-11-17T18:24:10.489Z,0.28
2022-11-17T18:27:12.082Z,0.27
2022-11-17T18:30:13.774Z,0.25
2022-11-17T18:33:16.347Z,0.25
2022-11-17T18:36:18.306Z,0.24
2022-11-17T18:39:21.451Z,0.24
2022-11-17T18:42:23.253Z,0.23
2022-11-17T18:45:24.888Z,0.22
2022-11-17T18:48:26.728Z,0.19
2022-11-17T18:51:29.600Z,0.18
2022-11-17T18:54:31.389Z,0.16
2022-11-17T18:57:32.975Z,0.14
2022-11-17T19:00:34.557Z,0.13
2022-11-17T19:03:36.920Z,0.13
2022-11-17T19:06:38.617Z,0.13
2022-11-17T19:09:40.166Z,0.13
2022-11-17T19:12:41.830Z,0.12
2022-11-17T19:15:43.442Z,0.11
2022-11-17T19:18:47.994Z,0.10
2022-11-17T19:21:54.237Z,0.08
2022-11-17T19:24:56.289Z,0.08
2022-11-17T19:27:58.968Z,0.07
2022-11-17T19:31:09.675Z,0.03
2022-11-17T19:34:14.510Z,-0.04
2022-11-17T19:37:16.477Z,-0.19
2022-11-17T19:40:21.278Z,-0.42
2022-11-17T19:43:22.891Z,-0.45
2022-11-17T19:46:31.386Z,-0.49
2022-11-17T19:49:33.072Z,-0.60
2022-11-17T19:52:35.008Z,-0.65
2022-11-17T19:55:36.753Z,-0.63
2022-11-17T19:58:39.853Z,-0.60
2022-11-17T20:01:43.509Z,-0.56
2022-11-17T20:04:46.067Z,-0.53
2022-11-17T20:07:48.177Z,-0.53
2022-11-17T20:10:49.804Z,-0.53
2022-11-17T20:13:51.860Z,-0.54
2022-11-17T20:16:56.598Z,-0.53
2022-11-17T20:19:58.392Z,-0.55
2022-11-17T20:23:00.164Z,-0.62
2022-11-17T20:26:06.240Z,-0.69
2022-11-17T20:29:08.123Z,-0.58
2022-11-17T20:32:09.743Z,-0.43
2022-11-17T20:35:11.622Z,-0.38
2022-11-17T20:38:15.864Z,-0.53
2022-11-17T20:41:18.428Z,-0.67
2022-11-17T20:44:26.081Z,-0.75
2022-11-17T20:47:27.802Z,-0.81
2022-11-17T20:50:29.593Z,-0.81
2022-11-17T20:53:31.828Z,-0.81
2022-11-17T20:56:33.737Z,-0.83
2022-11-17T20:59:35.503Z,-0.80
2022-11-17T21:02:37.131Z,-0.76
2022-11-17T21:05:38.777Z,-0.73
2022-11-17T21:08:42.491Z,-0.68
2022-11-17T21:11:56.798Z,-0.71
2022-11-17T21:14:58.491Z,-0.70
2022-11-17T21:18:18.693Z,-0.67
2022-11-17T21:21:20.778Z,-0.65
2022-11-17T21:24:22.693Z,-0.62
2022-11-17T21:27:24.433Z,-0.60
2022-11-17T21:30:25.969Z,-0.65
2022-11-17T21:33:27.664Z,-0.67
2022-11-17T21:36:30.889Z,-0.55
2022-11-17T21:39:32.475Z,-0.41
2022-11-17T21:42:34.439Z,-0.61
2022-11-17T21:45:36.002Z,-0.83
2022-11-17T21:48:38.057Z,-0.88
2022-11-17T21:51:39.649Z,-0.92
2022-11-17T21:54:41.337Z,-0.96
2022-11-17T21:57:43.026Z,-1.00
2022-11-17T22:00:45.082Z,-0.97
2022-11-17T22:03:46.771Z,-0.81
2022-11-17T22:06:48.633Z,-0.66
2022-11-17T22:09:50.091Z,-0.55
2022-11-17T22:12:51.699Z,-0.46
2022-11-17T22:15:54.067Z,-0.40
2022-11-17T22:18:55.859Z,-0.34
2022-11-17T22:21:57.446Z,-0.29
2022-11-17T22:25:11.463Z,-0.27
2022-11-17T22:28:21.455Z,-0.24
2022-11-17T22:31:23.400Z,-0.22
2022-11-17T22:34:25.165Z,-0.18
2022-11-17T22:37:27.243Z,-0.15
2022-11-17T22:40:28.765Z,-0.13
2022-11-17T22:43:30.612Z,-0.11
2022-11-17T22:46:32.474Z,-0.09
2022-11-17T22:49:34.185Z,-0.07
2022-11-17T22:52:35.945Z,-0.06
2022-11-17T22:55:37.770Z,-0.05
2022-11-17T22:58:39.447Z,-0.05
2022-11-17T23:01:40.940Z,-0.05
2022-11-17T23:04:42.732Z,-0.04
2022-11-17T23:07:44.565Z,-0.03
2022-11-17T23:10:46.379Z,-0.03
2022-11-17T23:13:48.202Z,-0.04
2022-11-17T23:16:49.904Z,-0.04
2022-11-17T23:19:51.518Z,-0.05
2022-11-17T23:22:54.726Z,-0.04
2022-11-17T23:26:01.648Z,-0.05
2022-11-17T23:29:03.432Z,-0.04
2022-11-17T23:32:05.225Z,-0.04
2022-11-17T23:35:07.454Z,-0.04
2022-11-17T23:38:11.617Z,-0.05
2022-11-17T23:41:15.412Z,-0.07
2022-11-17T23:44:17.195Z,-0.07
2022-11-17T23:47:18.897Z,-0.06
2022-11-17T23:50:20.686Z,-0.07
2022-11-17T23:53:22.306Z,-0.10
2022-11-17T23:56:24.035Z,-0.10
2022-11-17T23:59:25.702Z,-0.10
